CheckWX is a tool to help pilots better visualize weather data.  It is not intended as a substitute for an official pre-flight weather briefing.

21:28:28 UTC

KFUL METAR
Fullerton Municipal Airport
Fullerton, California, USA
Current

35 mins ago

KFUL 212053Z 19003KT 10SM BKN037 OVC070 18/08 A2988 RMK AO2 SLP118 T01780083 50000
Observed
Nov-21 @ 20:53 UTC
Wind
  • 190° at 3 KTS
Visibility
10 SM
Flight Rules
VFR
Cloud Levels
  • Broken at 3,700' AGL
  • Overcast at 7,000' AGL
Temperature
18°C / 64°F
Dewpoint
C / 46°F
Humidity
52%
Altimeter
29.88" Hg
Pressure
1011.82 hPa
Previous

2 hours ago

KFUL 211953Z 00000KT 10SM BKN033 18/08 A2989 RMK AO2 SLP119 T01780083
Observed
Nov-21 @ 19:53 UTC
Visibility
10 SM
Flight Rules
VFR
Cloud Levels
  • Broken at 3,300' AGL
Temperature
18°C / 64°F
Dewpoint
C / 46°F
Humidity
52%
Altimeter
29.89" Hg
Pressure
1012.22 hPa
Previous

3 hours ago

KFUL 211853Z VRB03KT 10SM BKN030 17/09 A2990 RMK AO2 SLP122 T01720089
Observed
Nov-21 @ 18:53 UTC
Wind
  • Variable at 3 KTS
Visibility
10 SM
Flight Rules
MVFR
Cloud Levels
  • Broken at 3,000' AGL
Temperature
17°C / 63°F
Dewpoint
C / 48°F
Humidity
59%
Altimeter
29.9" Hg
Pressure
1012.52 hPa